sensor_id;sensor_type;location;lat;lon;timestamp;pressure;altitude;pressure_sealevel;temperature;humidity
56176;BME280;63065;51.082;17.016;2023-03-01T00:01:30;101729.78;;;3.56;36.14
56176;BME280;63065;51.082;17.016;2023-03-01T00:03:54;101730.43;;;3.61;36.01
56176;BME280;63065;51.082;17.016;2023-03-01T00:06:20;101732.06;;;3.53;36.30
56176;BME280;63065;51.082;17.016;2023-03-01T00:08:44;101731.80;;;3.51;36.96
56176;BME280;63065;51.082;17.016;2023-03-01T00:11:12;101734.02;;;3.65;35.99
56176;BME280;63065;51.082;17.016;2023-03-01T00:13:35;101736.20;;;3.53;36.37
56176;BME280;63065;51.082;17.016;2023-03-01T00:16:02;101732.48;;;3.70;36.22
56176;BME280;63065;51.082;17.016;2023-03-01T00:18:25;101732.25;;;3.79;36.37
56176;BME280;63065;51.082;17.016;2023-03-01T00:20:52;101731.33;;;3.68;36.41
56176;BME280;63065;51.082;17.016;2023-03-01T00:23:16;101722.94;;;3.82;36.22
56176;BME280;63065;51.082;17.016;2023-03-01T00:25:42;101719.70;;;3.54;36.57
56176;BME280;63065;51.082;17.016;2023-03-01T00:28:08;101720.39;;;3.57;36.74
56176;BME280;63065;51.082;17.016;2023-03-01T00:30:34;101721.59;;;3.38;36.22
56176;BME280;63065;51.082;17.016;2023-03-01T00:32:59;101723.55;;;3.68;36.14
56176;BME280;63065;51.082;17.016;2023-03-01T00:35:24;101721.94;;;3.67;35.95
56176;BME280;63065;51.082;17.016;2023-03-01T00:37:50;101719.34;;;3.54;36.20
56176;BME280;63065;51.082;17.016;2023-03-01T00:40:15;101711.40;;;3.49;36.79
56176;BME280;63065;51.082;17.016;2023-03-01T00:42:41;101704.98;;;3.54;36.85
56176;BME280;63065;51.082;17.016;2023-03-01T00:45:07;101700.72;;;3.56;36.64
56176;BME280;63065;51.082;17.016;2023-03-01T00:47:32;101695.53;;;3.75;36.43
56176;BME280;63065;51.082;17.016;2023-03-01T00:49:57;101692.85;;;3.53;36.12
56176;BME280;63065;51.082;17.016;2023-03-01T00:52:23;101689.68;;;3.79;36.12
56176;BME280;63065;51.082;17.016;2023-03-01T00:54:48;101690.75;;;3.47;36.21
56176;BME280;63065;51.082;17.016;2023-03-01T00:57:13;101692.24;;;3.65;36.02
56176;BME280;63065;51.082;17.016;2023-03-01T00:59:39;101696.41;;;3.61;36.30
56176;BME280;63065;51.082;17.016;2023-03-01T01:02:05;101690.39;;;3.51;36.33
56176;BME280;63065;51.082;17.016;2023-03-01T01:04:30;101690.18;;;3.82;36.11
56176;BME280;63065;51.082;17.016;2023-03-01T01:06:55;101693.32;;;3.41;36.57
56176;BME280;63065;51.082;17.016;2023-03-01T01:09:20;101695.26;;;3.40;36.43
56176;BME280;63065;51.082;17.016;2023-03-01T01:11:47;101692.08;;;3.45;36.27
56176;BME280;63065;51.082;17.016;2023-03-01T01:14:12;101686.32;;;3.40;36.42
56176;BME280;63065;51.082;17.016;2023-03-01T01:16:37;101682.65;;;3.21;36.54
56176;BME280;63065;51.082;17.016;2023-03-01T01:19:03;101680.47;;;3.42;36.73
56176;BME280;63065;51.082;17.016;2023-03-01T01:21:29;101682.30;;;3.45;36.25
56176;BME280;63065;51.082;17.016;2023-03-01T01:23:54;101682.95;;;3.41;35.89
56176;BME280;63065;51.082;17.016;2023-03-01T01:26:22;101680.18;;;3.40;36.16
56176;BME280;63065;51.082;17.016;2023-03-01T01:28:45;101682.26;;;3.00;36.37
56176;BME280;63065;51.082;17.016;2023-03-01T01:31:10;101683.87;;;3.00;36.25
56176;BME280;63065;51.082;17.016;2023-03-01T01:33:36;101681.47;;;3.22;36.27
56176;BME280;63065;51.082;17.016;2023-03-01T01:36:01;101672.43;;;3.09;36.27
56176;BME280;63065;51.082;17.016;2023-03-01T01:38:26;101665.69;;;3.54;36.55
56176;BME280;63065;51.082;17.016;2023-03-01T01:40:52;101664.13;;;3.58;36.69
56176;BME280;63065;51.082;17.016;2023-03-01T01:43:20;101662.13;;;3.28;36.91
56176;BME280;63065;51.082;17.016;2023-03-01T01:45:43;101663.28;;;3.16;36.85
56176;BME280;63065;51.082;17.016;2023-03-01T01:48:13;101663.36;;;3.20;36.56
56176;BME280;63065;51.082;17.016;2023-03-01T01:50:35;101656.78;;;3.39;36.91
56176;BME280;63065;51.082;17.016;2023-03-01T01:53:00;101649.58;;;3.41;36.67
56176;BME280;63065;51.082;17.016;2023-03-01T01:55:27;101645.71;;;3.07;36.44
56176;BME280;63065;51.082;17.016;2023-03-01T01:57:53;101644.20;;;3.37;36.17
56176;BME280;63065;51.082;17.016;2023-03-01T02:00:19;101650.13;;;3.38;35.99
56176;BME280;63065;51.082;17.016;2023-03-01T02:02:43;101650.24;;;3.26;36.54
56176;BME280;63065;51.082;17.016;2023-03-01T02:05:12;101645.31;;;3.15;36.69
56176;BME280;63065;51.082;17.016;2023-03-01T02:07:32;101645.59;;;2.98;36.67
56176;BME280;63065;51.082;17.016;2023-03-01T02:09:58;101643.13;;;3.03;36.72
56176;BME280;63065;51.082;17.016;2023-03-01T02:12:24;101641.15;;;3.06;37.20
56176;BME280;63065;51.082;17.016;2023-03-01T02:14:49;101641.26;;;3.13;36.49
56176;BME280;63065;51.082;17.016;2023-03-01T02:17:16;101640.21;;;3.12;36.50
56176;BME280;63065;51.082;17.016;2023-03-01T02:19:46;101636.33;;;3.36;36.45
56176;BME280;63065;51.082;17.016;2023-03-01T02:22:13;101638.09;;;3.23;36.61
56176;BME280;63065;51.082;17.016;2023-03-01T02:24:39;101640.72;;;3.25;36.03
56176;BME280;63065;51.082;17.016;2023-03-01T02:26:56;101644.08;;;3.11;36.24
56176;BME280;63065;51.082;17.016;2023-03-01T02:29:21;101647.26;;;2.97;36.79
56176;BME280;63065;51.082;17.016;2023-03-01T02:31:46;101645.92;;;2.99;37.05
56176;BME280;63065;51.082;17.016;2023-03-01T02:34:14;101642.41;;;3.04;37.43
56176;BME280;63065;51.082;17.016;2023-03-01T02:36:39;101645.10;;;2.83;36.93
56176;BME280;63065;51.082;17.016;2023-03-01T02:39:05;101644.09;;;3.21;36.40
56176;BME280;63065;51.082;17.016;2023-03-01T02:41:30;101644.10;;;3.19;36.32
56176;BME280;63065;51.082;17.016;2023-03-01T02:43:53;101649.54;;;3.12;36.67
56176;BME280;63065;51.082;17.016;2023-03-01T02:46:20;101649.18;;;3.02;36.52
56176;BME280;63065;51.082;17.016;2023-03-01T02:48:47;101654.36;;;3.06;36.59
56176;BME280;63065;51.082;17.016;2023-03-01T02:51:21;101657.52;;;2.97;36.55
56176;BME280;63065;51.082;17.016;2023-03-01T02:53:41;101658.80;;;3.01;37.06
56176;BME280;63065;51.082;17.016;2023-03-01T02:56:01;101654.49;;;3.14;36.48
56176;BME280;63065;51.082;17.016;2023-03-01T02:58:27;101659.32;;;2.79;37.09
56176;BME280;63065;51.082;17.016;2023-03-01T03:00:51;101657.91;;;2.74;37.24
56176;BME280;63065;51.082;17.016;2023-03-01T03:03:20;101658.99;;;2.99;36.82
56176;BME280;63065;51.082;17.016;2023-03-01T03:05:43;101657.11;;;2.99;36.91
56176;BME280;63065;51.082;17.016;2023-03-01T03:08:08;101653.91;;;2.98;36.63
56176;BME280;63065;51.082;17.016;2023-03-01T03:10:36;101652.66;;;2.79;36.93
56176;BME280;63065;51.082;17.016;2023-03-01T03:13:01;101654.62;;;2.79;37.08
56176;BME280;63065;51.082;17.016;2023-03-01T03:15:26;101657.96;;;3.06;36.52
56176;BME280;63065;51.082;17.016;2023-03-01T03:17:51;101657.80;;;3.04;36.32
56176;BME280;63065;51.082;17.016;2023-03-01T03:20:18;101654.65;;;2.97;36.33
56176;BME280;63065;51.082;17.016;2023-03-01T03:22:40;101650.29;;;3.04;36.35
56176;BME280;63065;51.082;17.016;2023-03-01T03:25:07;101645.88;;;2.85;36.63
56176;BME280;63065;51.082;17.016;2023-03-01T03:27:31;101644.59;;;2.56;37.01
56176;BME280;63065;51.082;17.016;2023-03-01T03:29:57;101642.74;;;2.96;36.59
56176;BME280;63065;51.082;17.016;2023-03-01T03:32:23;101638.89;;;2.89;36.67
56176;BME280;63065;51.082;17.016;2023-03-01T03:34:48;101634.66;;;2.95;36.12
56176;BME280;63065;51.082;17.016;2023-03-01T03:37:13;101629.17;;;2.86;36.25
56176;BME280;63065;51.082;17.016;2023-03-01T03:39:39;101625.66;;;2.87;36.28
56176;BME280;63065;51.082;17.016;2023-03-01T03:42:05;101626.81;;;2.90;36.15
56176;BME280;63065;51.082;17.016;2023-03-01T03:44:30;101625.76;;;2.79;36.67
56176;BME280;63065;51.082;17.016;2023-03-01T03:46:55;101626.29;;;2.39;37.07
56176;BME280;63065;51.082;17.016;2023-03-01T03:49:21;101623.28;;;2.70;36.91
56176;BME280;63065;51.082;17.016;2023-03-01T03:51:47;101625.16;;;2.70;37.18
56176;BME280;63065;51.082;17.016;2023-03-01T03:54:12;101622.09;;;2.85;36.27
56176;BME280;63065;51.082;17.016;2023-03-01T03:56:38;101620.72;;;2.66;36.57
56176;BME280;63065;51.082;17.016;2023-03-01T03:59:03;101615.91;;;2.66;36.06
56176;BME280;63065;51.082;17.016;2023-03-01T04:01:29;101614.03;;;2.63;36.11
56176;BME280;63065;51.082;17.016;2023-03-01T04:03:55;101609.25;;;2.61;36.29
56176;BME280;63065;51.082;17.016;2023-03-01T04:06:20;101602.91;;;2.70;36.02
56176;BME280;63065;51.082;17.016;2023-03-01T04:08:45;101600.83;;;2.62;36.30
56176;BME280;63065;51.082;17.016;2023-03-01T04:11:11;101605.34;;;2.46;36.00
56176;BME280;63065;51.082;17.016;2023-03-01T04:13:35;101603.00;;;2.33;36.66
56176;BME280;63065;51.082;17.016;2023-03-01T04:16:01;101602.44;;;2.58;36.97
56176;BME280;63065;51.082;17.016;2023-03-01T04:18:27;101603.96;;;2.70;36.24
56176;BME280;63065;51.082;17.016;2023-03-01T04:20:53;101604.14;;;2.38;36.64
56176;BME280;63065;51.082;17.016;2023-03-01T04:23:19;101606.18;;;2.43;35.99
56176;BME280;63065;51.082;17.016;2023-03-01T04:25:47;101607.92;;;2.25;37.01
56176;BME280;63065;51.082;17.016;2023-03-01T04:28:09;101606.26;;;2.32;37.23
56176;BME280;63065;51.082;17.016;2023-03-01T04:30:35;101606.62;;;2.32;36.93
56176;BME280;63065;51.082;17.016;2023-03-01T04:32:59;101608.86;;;2.32;36.83
56176;BME280;63065;51.082;17.016;2023-03-01T04:35:24;101606.29;;;2.76;36.71
56176;BME280;63065;51.082;17.016;2023-03-01T04:37:50;101607.50;;;2.26;36.75
56176;BME280;63065;51.082;17.016;2023-03-01T04:40:16;101606.95;;;2.25;36.66
56176;BME280;63065;51.082;17.016;2023-03-01T04:42:41;101604.83;;;2.32;36.46
56176;BME280;63065;51.082;17.016;2023-03-01T04:45:07;101603.96;;;2.30;36.97
56176;BME280;63065;51.082;17.016;2023-03-01T04:47:32;101603.43;;;2.30;36.61
56176;BME280;63065;51.082;17.016;2023-03-01T04:49:57;101606.86;;;2.50;36.76
56176;BME280;63065;51.082;17.016;2023-03-01T04:52:23;101609.51;;;2.33;36.47
56176;BME280;63065;51.082;17.016;2023-03-01T04:54:49;101607.93;;;2.48;36.77
56176;BME280;63065;51.082;17.016;2023-03-01T04:57:14;101613.03;;;2.25;36.55
56176;BME280;63065;51.082;17.016;2023-03-01T04:59:40;101614.99;;;2.29;36.30
56176;BME280;63065;51.082;17.016;2023-03-01T05:02:05;101617.21;;;2.34;36.56
56176;BME280;63065;51.082;17.016;2023-03-01T05:04:35;101614.88;;;2.24;36.30
56176;BME280;63065;51.082;17.016;2023-03-01T05:06:56;101610.32;;;2.43;36.65
56176;BME280;63065;51.082;17.016;2023-03-01T05:09:21;101611.99;;;2.46;36.43
56176;BME280;63065;51.082;17.016;2023-03-01T05:11:47;101608.15;;;2.16;36.71
56176;BME280;63065;51.082;17.016;2023-03-01T05:14:12;101607.36;;;2.11;36.34
56176;BME280;63065;51.082;17.016;2023-03-01T05:16:37;101611.04;;;2.11;37.11
56176;BME280;63065;51.082;17.016;2023-03-01T05:19:03;101608.72;;;2.18;36.70
56176;BME280;63065;51.082;17.016;2023-03-01T05:21:28;101609.83;;;2.46;37.02
56176;BME280;63065;51.082;17.016;2023-03-01T05:23:53;101609.75;;;2.36;36.45
56176;BME280;63065;51.082;17.016;2023-03-01T05:26:20;101610.35;;;2.30;36.69
56176;BME280;63065;51.082;17.016;2023-03-01T05:28:46;101611.54;;;2.28;36.50
56176;BME280;63065;51.082;17.016;2023-03-01T05:31:10;101611.72;;;2.26;36.70
56176;BME280;63065;51.082;17.016;2023-03-01T05:33:36;101611.26;;;2.19;36.52
56176;BME280;63065;51.082;17.016;2023-03-01T05:36:03;101610.85;;;2.41;37.08
56176;BME280;63065;51.082;17.016;2023-03-01T05:38:27;101613.29;;;2.39;36.78
56176;BME280;63065;51.082;17.016;2023-03-01T05:40:52;101613.75;;;2.41;36.54
56176;BME280;63065;51.082;17.016;2023-03-01T05:43:17;101611.73;;;2.32;36.56
56176;BME280;63065;51.082;17.016;2023-03-01T05:45:44;101609.97;;;2.13;36.53
56176;BME280;63065;51.082;17.016;2023-03-01T05:48:10;101611.05;;;2.39;36.60
56176;BME280;63065;51.082;17.016;2023-03-01T05:50:36;101614.42;;;2.20;36.19
56176;BME280;63065;51.082;17.016;2023-03-01T05:53:01;101620.34;;;2.50;36.67
56176;BME280;63065;51.082;17.016;2023-03-01T05:55:26;101623.91;;;2.11;36.67
56176;BME280;63065;51.082;17.016;2023-03-01T05:57:51;101623.63;;;2.23;36.45
56176;BME280;63065;51.082;17.016;2023-03-01T06:00:18;101624.82;;;2.17;36.81
56176;BME280;63065;51.082;17.016;2023-03-01T06:02:42;101622.04;;;2.19;36.37
56176;BME280;63065;51.082;17.016;2023-03-01T06:05:09;101621.92;;;2.54;36.46
56176;BME280;63065;51.082;17.016;2023-03-01T06:07:32;101626.13;;;2.01;36.51
56176;BME280;63065;51.082;17.016;2023-03-01T06:09:57;101626.77;;;2.33;36.85
56176;BME280;63065;51.082;17.016;2023-03-01T06:12:23;101625.32;;;2.35;36.66
56176;BME280;63065;51.082;17.016;2023-03-01T06:14:48;101627.47;;;2.08;36.54
56176;BME280;63065;51.082;17.016;2023-03-01T06:17:13;101625.29;;;2.42;36.52
56176;BME280;63065;51.082;17.016;2023-03-01T06:19:39;101622.75;;;2.50;36.43
56176;BME280;63065;51.082;17.016;2023-03-01T06:22:04;101626.89;;;2.47;36.52
56176;BME280;63065;51.082;17.016;2023-03-01T06:24:29;101624.24;;;2.55;36.63
56176;BME280;63065;51.082;17.016;2023-03-01T06:26:55;101621.04;;;2.61;36.60
56176;BME280;63065;51.082;17.016;2023-03-01T06:29:21;101621.13;;;2.71;36.97
56176;BME280;63065;51.082;17.016;2023-03-01T06:31:46;101616.02;;;3.00;36.92
56176;BME280;63065;51.082;17.016;2023-03-01T06:34:11;101613.13;;;2.78;36.85
56176;BME280;63065;51.082;17.016;2023-03-01T06:36:37;101614.22;;;2.90;36.62
56176;BME280;63065;51.082;17.016;2023-03-01T06:39:02;101611.81;;;2.87;36.86
56176;BME280;63065;51.082;17.016;2023-03-01T06:41:28;101612.19;;;2.81;36.77
56176;BME280;63065;51.082;17.016;2023-03-01T06:43:54;101608.36;;;3.14;36.82
56176;BME280;63065;51.082;17.016;2023-03-01T06:46:18;101609.25;;;2.97;37.21
56176;BME280;63065;51.082;17.016;2023-03-01T06:48:44;101608.35;;;3.11;37.51
56176;BME280;63065;51.082;17.016;2023-03-01T06:51:10;101605.68;;;3.17;37.21
56176;BME280;63065;51.082;17.016;2023-03-01T06:53:35;101602.80;;;3.02;37.67
56176;BME280;63065;51.082;17.016;2023-03-01T06:56:00;101599.42;;;3.06;37.55
56176;BME280;63065;51.082;17.016;2023-03-01T06:58:26;101604.17;;;3.14;37.51
56176;BME280;63065;51.082;17.016;2023-03-01T07:00:51;101602.70;;;3.24;37.33
56176;BME280;63065;51.082;17.016;2023-03-01T07:03:17;101603.48;;;3.25;37.09
56176;BME280;63065;51.082;17.016;2023-03-01T07:05:42;101600.29;;;3.57;36.97
56176;BME280;63065;51.082;17.016;2023-03-01T07:08:07;101595.69;;;3.35;36.97
56176;BME280;63065;51.082;17.016;2023-03-01T07:10:33;101595.81;;;3.68;37.25
56176;BME280;63065;51.082;17.016;2023-03-01T07:12:58;101601.98;;;3.84;37.14
56176;BME280;63065;51.082;17.016;2023-03-01T07:15:24;101607.94;;;3.57;37.18
56176;BME280;63065;51.082;17.016;2023-03-01T07:17:49;101614.19;;;3.60;37.10
56176;BME280;63065;51.082;17.016;2023-03-01T07:20:14;101616.76;;;3.63;36.79
56176;BME280;63065;51.082;17.016;2023-03-01T07:22:41;101617.61;;;3.78;35.76
56176;BME280;63065;51.082;17.016;2023-03-01T07:25:06;101620.91;;;3.86;36.14
56176;BME280;63065;51.082;17.016;2023-03-01T07:27:32;101620.89;;;3.89;35.67
56176;BME280;63065;51.082;17.016;2023-03-01T07:29:56;101623.47;;;3.74;36.39
56176;BME280;63065;51.082;17.016;2023-03-01T07:32:22;101620.75;;;3.85;36.60
56176;BME280;63065;51.082;17.016;2023-03-01T07:34:47;101613.13;;;3.92;36.87
56176;BME280;63065;51.082;17.016;2023-03-01T07:37:12;101607.49;;;4.10;36.81
56176;BME280;63065;51.082;17.016;2023-03-01T07:39:38;101604.63;;;4.25;36.40
56176;BME280;63065;51.082;17.016;2023-03-01T07:42:03;101607.35;;;4.04;36.24
56176;BME280;63065;51.082;17.016;2023-03-01T07:44:28;101607.48;;;4.12;36.06
56176;BME280;63065;51.082;17.016;2023-03-01T07:46:54;101602.83;;;4.47;35.77
56176;BME280;63065;51.082;17.016;2023-03-01T07:49:21;101595.70;;;4.23;35.99
56176;BME280;63065;51.082;17.016;2023-03-01T07:51:45;101590.34;;;4.52;36.25
56176;BME280;63065;51.082;17.016;2023-03-01T07:54:11;101587.74;;;4.41;36.53
56176;BME280;63065;51.082;17.016;2023-03-01T07:56:36;101583.69;;;4.31;36.27
56176;BME280;63065;51.082;17.016;2023-03-01T07:59:02;101584.44;;;4.89;36.03
56176;BME280;63065;51.082;17.016;2023-03-01T08:01:27;101583.75;;;4.44;35.94
56176;BME280;63065;51.082;17.016;2023-03-01T08:03:53;101581.50;;;4.49;35.96
56176;BME280;63065;51.082;17.016;2023-03-01T08:06:19;101583.46;;;4.57;35.81
56176;BME280;63065;51.082;17.016;2023-03-01T08:08:44;101581.76;;;4.48;35.46
56176;BME280;63065;51.082;17.016;2023-03-01T08:11:11;101577.13;;;4.66;35.63
56176;BME280;63065;51.082;17.016;2023-03-01T08:13:35;101571.05;;;4.78;34.78
56176;BME280;63065;51.082;17.016;2023-03-01T08:16:02;101565.38;;;4.75;35.08
56176;BME280;63065;51.082;17.016;2023-03-01T08:18:26;101563.18;;;4.76;33.91
56176;BME280;63065;51.082;17.016;2023-03-01T08:20:52;101561.87;;;4.91;34.05
56176;BME280;63065;51.082;17.016;2023-03-01T08:23:17;101557.36;;;4.92;33.69
56176;BME280;63065;51.082;17.016;2023-03-01T08:25:44;101558.81;;;4.99;34.19
56176;BME280;63065;51.082;17.016;2023-03-01T08:28:08;101567.22;;;5.03;33.97
56176;BME280;63065;51.082;17.016;2023-03-01T08:30:34;101571.13;;;4.93;33.88
56176;BME280;63065;51.082;17.016;2023-03-01T08:33:00;101566.65;;;5.26;33.90
56176;BME280;63065;51.082;17.016;2023-03-01T08:35:25;101566.84;;;5.33;33.80
56176;BME280;63065;51.082;17.016;2023-03-01T08:37:51;101570.72;;;4.95;32.76
56176;BME280;63065;51.082;17.016;2023-03-01T08:40:16;101573.54;;;5.28;32.33
56176;BME280;63065;51.082;17.016;2023-03-01T08:42:42;101575.64;;;5.04;33.78
56176;BME280;63065;51.082;17.016;2023-03-01T08:45:09;101575.49;;;5.37;32.89
56176;BME280;63065;51.082;17.016;2023-03-01T08:47:33;101576.34;;;5.33;32.02
56176;BME280;63065;51.082;17.016;2023-03-01T08:49:58;101578.43;;;5.41;32.26
56176;BME280;63065;51.082;17.016;2023-03-01T08:52:24;101578.99;;;5.29;31.21
56176;BME280;63065;51.082;17.016;2023-03-01T08:54:49;101577.78;;;5.61;30.80
56176;BME280;63065;51.082;17.016;2023-03-01T08:57:15;101579.96;;;5.66;31.23
56176;BME280;63065;51.082;17.016;2023-03-01T08:59:41;101582.19;;;5.65;31.78
56176;BME280;63065;51.082;17.016;2023-03-01T09:02:11;101575.47;;;5.56;31.85
56176;BME280;63065;51.082;17.016;2023-03-01T09:04:32;101573.30;;;5.15;32.42
56176;BME280;63065;51.082;17.016;2023-03-01T09:06:57;101576.55;;;5.40;32.37
56176;BME280;63065;51.082;17.016;2023-03-01T09:09:22;101568.78;;;5.46;31.31
56176;BME280;63065;51.082;17.016;2023-03-01T09:11:48;101573.16;;;6.02;31.32
56176;BME280;63065;51.082;17.016;2023-03-01T09:14:13;101573.26;;;5.75;31.23
56176;BME280;63065;51.082;17.016;2023-03-01T09:16:38;101572.66;;;6.10;30.18
56176;BME280;63065;51.082;17.016;2023-03-01T09:19:04;101570.27;;;6.09;31.32
56176;BME280;63065;51.082;17.016;2023-03-01T09:21:29;101568.85;;;6.24;30.73
56176;BME280;63065;51.082;17.016;2023-03-01T09:23:56;101568.67;;;6.54;30.67
56176;BME280;63065;51.082;17.016;2023-03-01T09:26:22;101564.69;;;6.41;30.60
56176;BME280;63065;51.082;17.016;2023-03-01T09:28:45;101562.52;;;6.39;30.74
56176;BME280;63065;51.082;17.016;2023-03-01T09:31:11;101560.01;;;6.26;30.09
56176;BME280;63065;51.082;17.016;2023-03-01T09:33:35;101560.30;;;6.43;29.69
56176;BME280;63065;51.082;17.016;2023-03-01T09:36:03;101564.46;;;6.32;29.51
56176;BME280;63065;51.082;17.016;2023-03-01T09:38:26;101560.83;;;6.38;29.40
56176;BME280;63065;51.082;17.016;2023-03-01T09:40:51;101557.43;;;6.12;30.24
56176;BME280;63065;51.082;17.016;2023-03-01T09:43:23;101551.98;;;6.38;30.53
56176;BME280;63065;51.082;17.016;2023-03-01T09:45:44;101548.09;;;6.60;30.04
56176;BME280;63065;51.082;17.016;2023-03-01T09:48:15;101548.48;;;6.76;30.02
56176;BME280;63065;51.082;17.016;2023-03-01T09:50:35;101545.54;;;6.42;29.06
56176;BME280;63065;51.082;17.016;2023-03-01T09:53:02;101546.28;;;6.57;28.92
56176;BME280;63065;51.082;17.016;2023-03-01T09:55:29;101549.68;;;6.74;28.72
56176;BME280;63065;51.082;17.016;2023-03-01T09:57:53;101551.48;;;6.49;29.47
56176;BME280;63065;51.082;17.016;2023-03-01T10:00:24;101545.15;;;6.75;28.41
56176;BME280;63065;51.082;17.016;2023-03-01T10:02:44;101543.29;;;6.64;28.87
56176;BME280;63065;51.082;17.016;2023-03-01T10:05:21;101542.95;;;6.90;28.49
56176;BME280;63065;51.082;17.016;2023-03-01T10:07:39;101542.28;;;6.59;29.48
56176;BME280;63065;51.082;17.016;2023-03-01T10:09:57;101541.69;;;6.59;30.01
56176;BME280;63065;51.082;17.016;2023-03-01T10:12:27;101538.02;;;7.01;28.82
56176;BME280;63065;51.082;17.016;2023-03-01T10:14:54;101533.93;;;6.99;27.71
56176;BME280;63065;51.082;17.016;2023-03-01T10:17:23;101534.33;;;6.90;28.45
56176;BME280;63065;51.082;17.016;2023-03-01T10:19:42;101534.89;;;6.99;28.25
56176;BME280;63065;51.082;17.016;2023-03-01T10:22:11;101533.19;;;7.59;27.89
56176;BME280;63065;51.082;17.016;2023-03-01T10:24:34;101530.83;;;7.27;28.48
56176;BME280;63065;51.082;17.016;2023-03-01T10:26:57;101526.60;;;7.19;27.90
56176;BME280;63065;51.082;17.016;2023-03-01T10:29:25;101523.64;;;7.31;28.26
56176;BME280;63065;51.082;17.016;2023-03-01T10:31:48;101519.46;;;7.41;28.59
56176;BME280;63065;51.082;17.016;2023-03-01T10:34:15;101514.65;;;7.26;28.04
56176;BME280;63065;51.082;17.016;2023-03-01T10:36:40;101509.90;;;7.50;27.59
56176;BME280;63065;51.082;17.016;2023-03-01T10:39:13;101508.26;;;7.27;26.79
56176;BME280;63065;51.082;17.016;2023-03-01T10:41:29;101510.02;;;7.46;27.24
56176;BME280;63065;51.082;17.016;2023-03-01T10:43:56;101508.46;;;8.00;26.13
56176;BME280;63065;51.082;17.016;2023-03-01T10:46:26;101503.10;;;7.87;26.95
56176;BME280;63065;51.082;17.016;2023-03-01T10:48:45;101499.06;;;7.76;26.89
56176;BME280;63065;51.082;17.016;2023-03-01T10:51:17;101497.01;;;7.85;27.11
56176;BME280;63065;51.082;17.016;2023-03-01T10:53:38;101498.98;;;7.61;26.96
56176;BME280;63065;51.082;17.016;2023-03-01T10:56:04;101499.19;;;8.04;27.20
56176;BME280;63065;51.082;17.016;2023-03-01T10:58:28;101496.42;;;7.93;26.26
56176;BME280;63065;51.082;17.016;2023-03-01T11:00:54;101489.50;;;8.36;25.58
56176;BME280;63065;51.082;17.016;2023-03-01T11:03:22;101490.27;;;7.92;26.26
56176;BME280;63065;51.082;17.016;2023-03-01T11:05:53;101485.65;;;8.32;27.17
56176;BME280;63065;51.082;17.016;2023-03-01T11:08:09;101481.83;;;8.19;26.93
56176;BME280;63065;51.082;17.016;2023-03-01T11:10:35;101481.23;;;7.78;26.25
56176;BME280;63065;51.082;17.016;2023-03-01T11:13:08;101479.10;;;7.60;26.99
56176;BME280;63065;51.082;17.016;2023-03-01T11:15:26;101481.12;;;8.43;26.91
56176;BME280;63065;51.082;17.016;2023-03-01T11:17:50;101478.06;;;8.25;27.84
56176;BME280;63065;51.082;17.016;2023-03-01T11:20:23;101479.02;;;8.53;27.17
56176;BME280;63065;51.082;17.016;2023-03-01T11:22:46;101475.53;;;8.81;26.25
56176;BME280;63065;51.082;17.016;2023-03-01T11:25:11;101471.04;;;8.51;25.31
56176;BME280;63065;51.082;17.016;2023-03-01T11:27:33;101472.73;;;8.92;25.24
56176;BME280;63065;51.082;17.016;2023-03-01T11:29:59;101473.34;;;8.67;25.94
56176;BME280;63065;51.082;17.016;2023-03-01T11:32:24;101470.22;;;8.54;26.31
56176;BME280;63065;51.082;17.016;2023-03-01T11:34:50;101466.46;;;8.64;26.14
56176;BME280;63065;51.082;17.016;2023-03-01T11:37:21;101467.84;;;8.89;26.29
56176;BME280;63065;51.082;17.016;2023-03-01T11:39:41;101468.46;;;9.07;26.11
56176;BME280;63065;51.082;17.016;2023-03-01T11:42:14;101467.36;;;8.80;26.19
56176;BME280;63065;51.082;17.016;2023-03-01T11:44:33;101471.28;;;8.73;25.93
56176;BME280;63065;51.082;17.016;2023-03-01T11:47:05;101471.81;;;9.42;25.75
56176;BME280;63065;51.082;17.016;2023-03-01T11:49:36;101467.10;;;9.27;25.40
56176;BME280;63065;51.082;17.016;2023-03-01T11:51:51;101465.73;;;9.16;26.60
56176;BME280;63065;51.082;17.016;2023-03-01T11:54:20;101460.57;;;8.94;25.78
56176;BME280;63065;51.082;17.016;2023-03-01T11:56:40;101460.99;;;9.41;24.81
56176;BME280;63065;51.082;17.016;2023-03-01T11:59:13;101457.17;;;8.89;26.18
56176;BME280;63065;51.082;17.016;2023-03-01T12:01:37;101457.34;;;8.99;25.79
56176;BME280;63065;51.082;17.016;2023-03-01T12:06:29;101447.17;;;8.69;25.71
56176;BME280;63065;51.082;17.016;2023-03-01T12:08:51;101446.59;;;8.74;26.85
56176;BME280;63065;51.082;17.016;2023-03-01T12:11:21;101448.77;;;8.97;25.13
56176;BME280;63065;51.082;17.016;2023-03-01T12:13:44;101447.23;;;9.12;25.23
56176;BME280;63065;51.082;17.016;2023-03-01T12:16:09;101440.02;;;8.75;25.97
56176;BME280;63065;51.082;17.016;2023-03-01T12:18:37;101439.95;;;8.84;25.72
56176;BME280;63065;51.082;17.016;2023-03-01T12:20:58;101438.90;;;9.44;25.30
56176;BME280;63065;51.082;17.016;2023-03-01T12:25:47;101431.70;;;9.79;24.19
56176;BME280;63065;51.082;17.016;2023-03-01T12:28:19;101426.17;;;10.09;23.87
56176;BME280;63065;51.082;17.016;2023-03-01T12:30:42;101426.71;;;10.06;22.57
56176;BME280;63065;51.082;17.016;2023-03-01T12:33:09;101428.33;;;10.22;23.71
56176;BME280;63065;51.082;17.016;2023-03-01T12:35:37;101427.43;;;10.14;22.77
56176;BME280;63065;51.082;17.016;2023-03-01T12:37:57;101427.49;;;9.99;23.08
56176;BME280;63065;51.082;17.016;2023-03-01T12:40:31;101420.69;;;10.31;23.05
56176;BME280;63065;51.082;17.016;2023-03-01T12:42:46;101414.84;;;10.04;23.69
56176;BME280;63065;51.082;17.016;2023-03-01T12:45:21;101409.18;;;9.69;23.70